createdAt,value
2019-03-29T00:00:33.006Z,99.99
2019-03-29T00:01:18.358Z,99.99
2019-03-29T00:02:19.399Z,99.99
2019-03-29T00:03:18.396Z,99.99
2019-03-29T00:04:18.489Z,99.99
2019-03-29T00:05:18.248Z,99.99
2019-03-29T00:06:18.473Z,99.99
2019-03-29T00:07:18.220Z,99.99
2019-03-29T00:08:18.502Z,99.99
2019-03-29T00:09:18.503Z,99.99
2019-03-29T00:11:18.553Z,99.99
2019-03-29T00:12:18.570Z,99.99
2019-03-29T00:13:18.581Z,99.99
2019-03-29T00:15:18.640Z,99.99
2019-03-29T00:16:33.295Z,99.99
2019-03-29T00:17:18.415Z,99.99
2019-03-29T00:18:18.785Z,99.99
2019-03-29T00:19:18.705Z,99.99
2019-03-29T00:20:19.449Z,99.99
2019-03-29T00:21:18.727Z,99.99
2019-03-29T00:22:18.757Z,99.99
2019-03-29T00:24:18.798Z,99.99
2019-03-29T00:25:18.800Z,99.99
2019-03-29T00:26:18.838Z,99.99
2019-03-29T00:28:18.859Z,99.99
2019-03-29T00:30:18.895Z,99.99
2019-03-29T00:31:33.583Z,99.99
2019-03-29T00:32:18.681Z,99.99
2019-03-29T00:33:18.964Z,99.99
2019-03-29T00:34:18.966Z,99.99
2019-03-29T00:35:18.997Z,99.99
2019-03-29T00:36:19.023Z,99.99
2019-03-29T00:37:20.330Z,99.99
2019-03-29T00:38:19.039Z,99.99
2019-03-29T00:39:19.075Z,99.99
2019-03-29T00:40:19.081Z,99.99
2019-03-29T00:41:19.112Z,99.99
2019-03-29T00:42:19.690Z,99.99
2019-03-29T00:43:19.250Z,99.99
2019-03-29T00:44:19.152Z,99.99
2019-03-29T00:45:19.342Z,99.99
2019-03-29T00:46:19.192Z,99.99
2019-03-29T00:48:19.243Z,99.99
2019-03-29T00:49:19.251Z,99.99
2019-03-29T00:50:19.269Z,99.99
2019-03-29T00:51:19.281Z,99.99
2019-03-29T00:52:19.250Z,99.99
2019-03-29T00:53:19.319Z,99.99
2019-03-29T00:54:19.352Z,99.99
2019-03-29T00:55:19.618Z,99.99
2019-03-29T00:56:19.394Z,99.99
2019-03-29T00:57:19.406Z,99.99
2019-03-29T00:58:19.413Z,99.99
2019-03-29T00:59:19.440Z,99.99
2019-03-29T01:01:19.466Z,99.99
2019-03-29T01:02:19.510Z,99.99
2019-03-29T01:03:34.165Z,99.99
2019-03-29T01:04:19.542Z,99.99
2019-03-29T01:05:20.211Z,99.99
2019-03-29T01:06:19.566Z,99.99
2019-03-29T01:07:19.575Z,99.99
2019-03-29T01:08:19.595Z,99.99
2019-03-29T01:09:19.631Z,99.99
2019-03-29T01:10:19.635Z,99.99
2019-03-29T01:11:19.666Z,99.99
2019-03-29T01:12:19.669Z,99.99
2019-03-29T01:13:19.704Z,99.99
2019-03-29T01:14:19.705Z,99.99
2019-03-29T01:15:19.754Z,99.99
2019-03-29T01:16:19.759Z,99.99
2019-03-29T01:17:20.105Z,99.99
2019-03-29T01:18:19.795Z,99.99
2019-03-29T01:19:34.467Z,99.99
2019-03-29T01:20:19.582Z,99.99
2019-03-29T01:21:19.839Z,99.99
2019-03-29T01:22:19.863Z,99.99
2019-03-29T01:23:19.879Z,99.99
2019-03-29T01:24:19.918Z,99.99
2019-03-29T01:25:19.926Z,99.99
2019-03-29T01:26:19.930Z,99.99
2019-03-29T01:27:20.852Z,99.99
2019-03-29T01:28:19.982Z,99.99
2019-03-29T01:29:19.983Z,99.99
2019-03-29T01:30:20.018Z,99.99
2019-03-29T01:31:20.041Z,99.99
2019-03-29T01:32:20.041Z,99.99
2019-03-29T01:33:20.060Z,99.99
2019-03-29T01:34:20.095Z,99.99
2019-03-29T01:35:35.377Z,99.99
2019-03-29T01:36:20.120Z,99.99
2019-03-29T01:37:20.167Z,99.99
2019-03-29T01:38:24.810Z,99.99
2019-03-29T01:39:20.188Z,99.99
2019-03-29T01:40:20.201Z,99.99
2019-03-29T01:41:20.222Z,99.99
2019-03-29T01:42:21.343Z,99.99
2019-03-29T01:43:20.259Z,99.99
2019-03-29T01:44:20.260Z,99.99
2019-03-29T01:45:20.283Z,99.99
2019-03-29T01:46:20.312Z,99.99
2019-03-29T01:47:20.317Z,99.99
2019-03-29T01:48:20.359Z,99.99
2019-03-29T01:49:20.353Z,99.99
2019-03-29T01:50:20.392Z,99.99
2019-03-29T01:51:35.054Z,99.99
2019-03-29T01:52:20.429Z,99.99
2019-03-29T01:53:20.440Z,99.99
2019-03-29T01:54:20.454Z,99.99
2019-03-29T01:55:20.469Z,99.99
2019-03-29T01:56:20.501Z,99.99
2019-03-29T01:58:20.537Z,99.99
2019-03-29T02:00:20.582Z,99.99
2019-03-29T02:01:20.663Z,99.99
2019-03-29T02:02:21.019Z,99.99
2019-03-29T02:03:20.630Z,99.99
2019-03-29T02:05:20.667Z,99.99
2019-03-29T02:06:35.339Z,99.99
2019-03-29T02:07:20.688Z,99.99
2019-03-29T02:08:34.799Z,99.99
2019-03-29T02:09:20.724Z,99.99
2019-03-29T02:10:20.763Z,99.99
2019-03-29T02:11:20.761Z,99.99
2019-03-29T02:12:20.800Z,99.99
2019-03-29T02:13:20.849Z,99.99
2019-03-29T02:14:20.826Z,99.99
2019-03-29T02:15:20.849Z,99.99
2019-03-29T02:16:20.856Z,99.99
2019-03-29T02:17:21.225Z,99.99
2019-03-29T02:18:20.896Z,99.99
2019-03-29T02:19:20.926Z,99.99
2019-03-29T02:21:20.946Z,99.99
2019-03-29T02:22:20.977Z,99.99
2019-03-29T02:23:21.003Z,99.99
2019-03-29T02:24:21.002Z,99.99
2019-03-29T02:25:21.039Z,99.99
2019-03-29T02:26:21.039Z,99.99
2019-03-29T02:27:21.076Z,99.99
2019-03-29T02:28:21.585Z,99.99
2019-03-29T02:29:21.113Z,99.99
2019-03-29T02:30:21.127Z,99.99
2019-03-29T02:31:25.345Z,99.99
2019-03-29T02:33:22.988Z,99.99
2019-03-29T02:34:21.211Z,99.99
2019-03-29T02:35:21.213Z,99.99
2019-03-29T02:36:21.227Z,99.99
2019-03-29T02:37:21.267Z,99.99
2019-03-29T02:38:47.389Z,99.99
2019-03-29T02:39:21.359Z,99.99
2019-03-29T02:41:22.068Z,99.99
2019-03-29T02:42:21.397Z,99.99
2019-03-29T02:43:21.406Z,99.99
2019-03-29T02:44:21.420Z,99.99
2019-03-29T02:45:21.450Z,99.99
2019-03-29T02:46:21.462Z,99.99
2019-03-29T02:47:21.934Z,99.99
2019-03-29T02:48:21.495Z,99.99
2019-03-29T02:49:21.524Z,99.99
2019-03-29T02:50:21.539Z,99.99
2019-03-29T02:51:21.561Z,99.99
2019-03-29T02:52:21.647Z,99.99
2019-03-29T02:53:21.730Z,99.99
2019-03-29T02:55:21.652Z,99.99
2019-03-29T02:58:21.694Z,99.99
2019-03-29T02:59:21.827Z,99.99
2019-03-29T03:00:36.374Z,99.99
2019-03-29T03:01:21.734Z,99.99
2019-03-29T03:02:26.039Z,99.99
2019-03-29T03:03:21.873Z,99.99
2019-03-29T03:04:21.813Z,99.99
2019-03-29T03:05:21.807Z,99.99
2019-03-29T03:06:21.845Z,99.99
2019-03-29T03:07:21.859Z,99.99
2019-03-29T03:08:21.893Z,99.99
2019-03-29T03:09:21.891Z,99.99
2019-03-29T03:10:21.918Z,99.99
2019-03-29T03:11:21.949Z,99.99
2019-03-29T03:12:21.945Z,99.99
2019-03-29T03:13:21.979Z,99.99
2019-03-29T03:14:21.973Z,99.99
2019-03-29T03:15:22.164Z,99.99
2019-03-29T03:16:36.672Z,99.99
2019-03-29T03:17:22.048Z,99.99
2019-03-29T03:18:22.067Z,99.99
2019-03-29T03:19:22.083Z,99.99
2019-03-29T03:20:22.088Z,99.99
2019-03-29T03:21:22.118Z,99.99
2019-03-29T03:22:22.132Z,99.99
2019-03-29T03:23:21.913Z,99.99
2019-03-29T03:24:22.165Z,99.99
2019-03-29T03:25:22.182Z,99.99
2019-03-29T03:26:22.202Z,99.99
2019-03-29T03:27:22.229Z,99.99
2019-03-29T03:28:22.255Z,99.99
2019-03-29T03:29:22.256Z,99.99
2019-03-29T03:30:22.273Z,99.99
2019-03-29T03:31:22.295Z,99.99
2019-03-29T03:32:36.971Z,99.99
2019-03-29T03:33:22.486Z,99.99
2019-03-29T03:34:22.371Z,99.99
2019-03-29T03:35:22.421Z,99.99
2019-03-29T03:36:22.403Z,99.99
2019-03-29T03:37:22.399Z,99.99
2019-03-29T03:38:22.427Z,99.99
2019-03-29T03:39:34.344Z,99.99
2019-03-29T03:40:22.482Z,99.99
2019-03-29T03:42:22.500Z,99.99
2019-03-29T03:43:22.552Z,99.99
2019-03-29T03:45:22.575Z,99.99
2019-03-29T03:46:22.572Z,99.99
2019-03-29T03:47:22.608Z,99.99
2019-03-29T03:48:37.265Z,99.99
2019-03-29T03:49:22.637Z,99.99
2019-03-29T03:50:22.640Z,99.99
2019-03-29T03:51:22.689Z,99.99
2019-03-29T03:52:22.698Z,99.99
2019-03-29T03:53:22.717Z,99.99
2019-03-29T03:54:22.722Z,99.99
2019-03-29T03:55:22.743Z,99.99
2019-03-29T03:56:22.761Z,99.99
2019-03-29T03:57:22.799Z,99.99
2019-03-29T03:58:22.811Z,99.99
2019-03-29T03:59:22.808Z,99.99
2019-03-29T04:00:22.844Z,99.99
2019-03-29T04:01:22.860Z,99.99
2019-03-29T04:03:37.544Z,99.99
2019-03-29T04:04:22.918Z,99.99
2019-03-29T04:05:22.947Z,99.99
2019-03-29T04:06:22.943Z,99.99
2019-03-29T04:07:23.001Z,99.99
2019-03-29T04:08:22.988Z,99.99
2019-03-29T04:09:23.009Z,99.99
2019-03-29T04:10:23.018Z,99.99
2019-03-29T04:11:23.055Z,99.99
2019-03-29T04:12:23.047Z,99.99
2019-03-29T04:13:23.080Z,99.99
2019-03-29T04:14:23.106Z,99.99
2019-03-29T04:15:23.124Z,99.99
2019-03-29T04:16:23.123Z,99.99
2019-03-29T04:17:23.164Z,99.99
2019-03-29T04:18:23.190Z,99.99
2019-03-29T04:19:23.229Z,99.99
2019-03-29T04:20:23.248Z,99.99
2019-03-29T04:21:23.243Z,99.99
2019-03-29T04:22:23.257Z,99.99
2019-03-29T04:23:23.275Z,99.99
2019-03-29T04:24:23.271Z,99.99
2019-03-29T04:25:23.317Z,99.99
2019-03-29T04:28:23.356Z,99.99
2019-03-29T04:29:23.365Z,99.99
2019-03-29T04:30:23.385Z,99.99
2019-03-29T04:31:23.416Z,99.99
2019-03-29T04:32:23.436Z,99.99
2019-03-29T04:33:23.216Z,99.99
2019-03-29T04:34:23.483Z,99.99
2019-03-29T04:35:38.135Z,99.99
2019-03-29T04:36:23.498Z,99.99
2019-03-29T04:37:23.512Z,99.99
2019-03-29T04:38:23.549Z,99.99
2019-03-29T04:39:23.561Z,99.99
2019-03-29T04:40:23.580Z,99.99
2019-03-29T04:41:23.600Z,99.99
2019-03-29T04:42:23.620Z,99.99
2019-03-29T04:43:23.631Z,99.99
2019-03-29T04:44:23.656Z,99.99
2019-03-29T04:45:23.659Z,99.99
2019-03-29T04:46:23.716Z,99.99
2019-03-29T04:47:23.702Z,99.99
2019-03-29T04:48:23.738Z,99.99
2019-03-29T04:49:23.733Z,99.99
2019-03-29T04:50:23.770Z,99.99
2019-03-29T04:51:38.432Z,99.99
2019-03-29T04:52:23.789Z,99.99
2019-03-29T04:53:23.824Z,99.99
2019-03-29T04:54:23.830Z,99.99
2019-03-29T04:55:23.862Z,99.99
2019-03-29T04:56:23.864Z,99.99
2019-03-29T04:57:23.897Z,99.99
2019-03-29T04:58:23.907Z,99.99
2019-03-29T04:59:23.917Z,99.99
2019-03-29T05:00:23.951Z,99.99
2019-03-29T05:01:23.959Z,99.99
2019-03-29T05:02:23.990Z,99.99
2019-03-29T05:03:24.005Z,99.99
2019-03-29T05:04:24.037Z,99.99
2019-03-29T05:05:24.028Z,99.99
2019-03-29T05:07:38.731Z,99.99
2019-03-29T05:08:24.151Z,99.99
2019-03-29T05:09:24.102Z,99.99
2019-03-29T05:10:24.516Z,99.99
2019-03-29T05:11:24.146Z,99.99
2019-03-29T05:12:24.181Z,99.99
2019-03-29T05:13:24.193Z,99.99
2019-03-29T05:14:24.202Z,99.99
2019-03-29T05:15:24.314Z,99.99
2019-03-29T05:17:24.273Z,99.99
2019-03-29T05:18:24.272Z,99.99
2019-03-29T05:19:24.305Z,99.99
2019-03-29T05:20:24.323Z,99.99
2019-03-29T05:21:24.328Z,99.99
2019-03-29T05:22:24.343Z,99.99
2019-03-29T05:23:39.030Z,99.99
2019-03-29T05:24:24.400Z,99.99
2019-03-29T05:25:24.403Z,99.99
2019-03-29T05:26:27.715Z,99.99
2019-03-29T05:27:24.451Z,99.99
2019-03-29T05:28:24.474Z,99.99
2019-03-29T05:29:24.474Z,99.99
2019-03-29T05:30:24.495Z,99.99
2019-03-29T05:31:24.522Z,99.99
2019-03-29T05:32:24.549Z,99.99
2019-03-29T05:33:24.549Z,99.99
2019-03-29T05:34:24.590Z,99.99
2019-03-29T05:35:24.592Z,99.99
2019-03-29T05:36:24.621Z,99.99
2019-03-29T05:37:24.623Z,99.99
2019-03-29T05:38:39.310Z,99.99
2019-03-29T05:39:24.668Z,99.99
2019-03-29T05:40:37.329Z,99.99
2019-03-29T05:41:24.720Z,99.99
2019-03-29T05:42:24.726Z,99.99
2019-03-29T05:43:24.754Z,99.99
2019-03-29T05:44:24.797Z,99.99
2019-03-29T05:45:24.791Z,99.99
2019-03-29T05:46:24.791Z,99.99
2019-03-29T05:47:24.855Z,99.99
2019-03-29T05:48:24.843Z,99.99
2019-03-29T05:49:24.860Z,99.99
2019-03-29T05:50:24.886Z,99.99
2019-03-29T05:51:24.944Z,99.99
2019-03-29T05:52:24.921Z,99.99
2019-03-29T05:53:24.921Z,99.99
2019-03-29T05:54:24.942Z,99.99
2019-03-29T05:55:35.051Z,99.99
2019-03-29T05:56:25.054Z,99.99
2019-03-29T05:57:25.017Z,99.99
2019-03-29T05:58:25.019Z,99.99
2019-03-29T05:59:25.054Z,99.99
2019-03-29T06:00:25.059Z,99.99
2019-03-29T06:01:25.073Z,99.99
2019-03-29T06:02:25.111Z,99.99
2019-03-29T06:03:25.120Z,99.99
2019-03-29T06:04:25.135Z,99.99
2019-03-29T06:05:25.147Z,99.99
2019-03-29T06:06:25.185Z,99.99
2019-03-29T06:07:25.207Z,99.99
2019-03-29T06:08:25.204Z,99.99
2019-03-29T06:09:25.236Z,99.99
2019-03-29T06:10:48.591Z,99.99
2019-03-29T06:11:25.280Z,99.99
2019-03-29T06:12:25.286Z,99.99
2019-03-29T06:13:25.318Z,99.99
2019-03-29T06:14:25.317Z,99.99
2019-03-29T06:15:25.351Z,99.99
2019-03-29T06:16:38.257Z,99.99
2019-03-29T06:17:25.394Z,99.99
2019-03-29T06:18:25.394Z,99.99
2019-03-29T06:19:25.439Z,99.99
2019-03-29T06:20:25.440Z,99.99
2019-03-29T06:21:25.471Z,99.99
2019-03-29T06:22:25.487Z,99.99
2019-03-29T06:23:25.513Z,99.99
2019-03-29T06:25:25.542Z,99.99
2019-03-29T06:26:40.215Z,99.99
2019-03-29T06:27:25.569Z,99.99
2019-03-29T06:28:25.584Z,99.99
2019-03-29T06:29:25.625Z,99.99
2019-03-29T06:30:25.622Z,99.99
2019-03-29T06:31:25.645Z,99.99
2019-03-29T06:32:25.677Z,99.99
2019-03-29T06:33:25.686Z,99.99
2019-03-29T06:34:25.716Z,99.99
2019-03-29T06:35:25.720Z,99.99
2019-03-29T06:36:25.755Z,99.99
2019-03-29T06:37:25.767Z,99.99
2019-03-29T06:38:25.796Z,99.99
2019-03-29T06:39:25.803Z,99.99
2019-03-29T06:40:25.838Z,99.99
2019-03-29T06:41:25.855Z,99.99
2019-03-29T06:42:40.515Z,99.99
2019-03-29T06:43:25.890Z,99.99
2019-03-29T06:44:25.890Z,99.99
2019-03-29T06:45:25.917Z,99.99
2019-03-29T06:47:25.957Z,99.99
2019-03-29T06:48:25.986Z,99.99
2019-03-29T06:49:25.992Z,99.99
2019-03-29T06:50:26.023Z,99.99
2019-03-29T06:51:26.038Z,99.99
2019-03-29T06:52:26.066Z,99.99
2019-03-29T06:53:26.074Z,99.99
2019-03-29T06:55:26.107Z,99.99
2019-03-29T06:56:26.151Z,99.99
2019-03-29T06:57:26.160Z,99.99
2019-03-29T06:58:40.828Z,99.99
2019-03-29T06:59:26.197Z,99.99
2019-03-29T07:00:26.208Z,99.99
2019-03-29T07:01:26.227Z,99.99
2019-03-29T07:02:26.240Z,99.99
2019-03-29T07:03:26.277Z,99.99
2019-03-29T07:04:26.356Z,99.99
2019-03-29T07:05:26.329Z,99.99
2019-03-29T07:06:26.322Z,99.99
2019-03-29T07:07:26.355Z,99.99
2019-03-29T07:08:26.355Z,99.99
2019-03-29T07:09:26.397Z,99.99
2019-03-29T07:10:26.410Z,99.99
2019-03-29T07:11:26.438Z,99.99
2019-03-29T07:12:26.449Z,99.99
2019-03-29T07:13:41.198Z,99.99
2019-03-29T07:14:26.474Z,99.99
2019-03-29T07:15:26.495Z,99.99
2019-03-29T07:16:26.531Z,99.99
2019-03-29T07:17:26.542Z,99.99
2019-03-29T07:18:26.580Z,99.99
2019-03-29T07:19:26.617Z,99.99
2019-03-29T07:20:26.615Z,99.99
2019-03-29T07:21:26.618Z,99.99
2019-03-29T07:22:26.630Z,99.99
2019-03-29T07:23:26.668Z,99.99
2019-03-29T07:24:26.685Z,99.99
2019-03-29T07:25:26.702Z,99.99
2019-03-29T07:27:26.796Z,99.99
2019-03-29T07:28:26.767Z,99.99
2019-03-29T07:29:26.769Z,99.99
2019-03-29T07:30:26.807Z,99.99
2019-03-29T07:31:26.808Z,99.99
2019-03-29T07:32:26.848Z,99.99
2019-03-29T07:33:26.846Z,99.99
2019-03-29T07:34:26.885Z,99.99
2019-03-29T07:35:26.985Z,99.99
2019-03-29T07:36:26.924Z,99.99
2019-03-29T07:37:26.926Z,99.99
2019-03-29T07:38:26.949Z,99.99
2019-03-29T07:39:26.981Z,99.99
2019-03-29T07:40:26.993Z,99.99
2019-03-29T07:42:27.029Z,99.99
2019-03-29T07:43:27.069Z,99.99
2019-03-29T07:44:27.063Z,99.99
2019-03-29T07:45:41.749Z,99.99
2019-03-29T07:46:27.120Z,99.99
2019-03-29T07:47:27.131Z,99.99
2019-03-29T07:48:27.159Z,99.99
2019-03-29T07:49:27.171Z,99.99
2019-03-29T07:50:27.183Z,99.99
2019-03-29T07:51:27.221Z,99.99
2019-03-29T07:52:27.242Z,99.99
2019-03-29T07:53:27.244Z,99.99
2019-03-29T07:54:27.279Z,99.99
2019-03-29T07:55:27.284Z,99.99
2019-03-29T07:56:27.330Z,99.99
2019-03-29T07:57:27.337Z,99.99
2019-03-29T08:00:27.397Z,99.99
2019-03-29T08:01:42.073Z,99.99
2019-03-29T08:02:28.854Z,99.99
2019-03-29T08:03:27.445Z,99.99
2019-03-29T08:04:27.481Z,99.99
2019-03-29T08:05:27.483Z,99.99
2019-03-29T08:06:27.525Z,99.99
2019-03-29T08:07:31.427Z,99.99
2019-03-29T08:08:34.955Z,99.99
2019-03-29T08:09:27.688Z,99.99
2019-03-29T08:10:33.314Z,99.99
2019-03-29T08:11:29.088Z,99.99
2019-03-29T08:12:27.689Z,99.99
2019-03-29T08:14:27.672Z,99.9
2019-03-29T08:15:27.706Z,99.99
2019-03-29T08:16:27.716Z,99.99
2019-03-29T08:17:42.397Z,99.99
2019-03-29T08:18:27.754Z,99.99
2019-03-29T08:19:27.784Z,99.71
2019-03-29T08:20:44.253Z,99.14
2019-03-29T08:21:27.828Z,99.29
2019-03-29T08:22:27.838Z,97.8
2019-03-29T08:23:31.300Z,98.43
2019-03-29T08:24:27.898Z,97.85
2019-03-29T08:25:27.921Z,97.28
2019-03-29T08:26:27.918Z,97.85
2019-03-29T08:27:28.046Z,96.51
2019-03-29T08:28:27.976Z,96.89
2019-03-29T08:29:31.185Z,97.18
2019-03-29T08:30:28.022Z,97.75
2019-03-29T08:31:28.020Z,96.32
2019-03-29T08:32:28.062Z,96.61
2019-03-29T08:33:42.728Z,95.61
2019-03-29T08:34:28.090Z,95.07
2019-03-29T08:35:28.126Z,96.22
2019-03-29T08:36:28.147Z,95.79
2019-03-29T08:37:28.167Z,96.08
2019-03-29T08:38:28.170Z,96.94
2019-03-29T08:39:30.814Z,96.47
2019-03-29T08:40:28.217Z,95.03
2019-03-29T08:41:28.251Z,94.93
2019-03-29T08:42:28.257Z,94.65
2019-03-29T08:43:28.296Z,95.31
2019-03-29T08:44:28.296Z,94.55
2019-03-29T08:45:28.331Z,94.36
2019-03-29T08:46:28.359Z,95.31
2019-03-29T08:47:28.378Z,94.45
2019-03-29T08:48:43.048Z,94.45
2019-03-29T08:49:28.516Z,95.31
2019-03-29T08:50:28.425Z,95.31
2019-03-29T08:51:28.448Z,95.7
2019-03-29T08:52:28.682Z,95.61
2019-03-29T08:53:30.023Z,95.41
2019-03-29T08:54:28.538Z,95.41
2019-03-29T08:55:28.533Z,94.98
2019-03-29T08:56:28.570Z,94.26
2019-03-29T08:57:28.678Z,94.93
2019-03-29T08:58:28.597Z,93.93
2019-03-29T08:59:28.634Z,93.3
2019-03-29T09:00:28.662Z,93.79
2019-03-29T09:01:28.683Z,93.02
2019-03-29T09:02:28.684Z,92.83
2019-03-29T09:03:28.729Z,93.4
2019-03-29T09:04:28.727Z,93.83
2019-03-29T09:05:28.765Z,93.5
2019-03-29T09:06:30.245Z,94.36
2019-03-29T09:07:43.520Z,93.88
2019-03-29T09:08:28.832Z,92.58
2019-03-29T09:09:28.842Z,91.44
2019-03-29T09:10:28.859Z,91.44
2019-03-29T09:11:28.893Z,92.06
2019-03-29T09:14:31.344Z,91.58
2019-03-29T09:15:28.968Z,91.3
2019-03-29T09:16:29.004Z,92.3
2019-03-29T09:17:29.007Z,92.73
2019-03-29T09:18:29.050Z,94.17
2019-03-29T09:19:29.049Z,94.31
2019-03-29T09:20:43.742Z,93.54
2019-03-29T09:21:28.846Z,92.49
2019-03-29T09:22:29.116Z,91.82
2019-03-29T09:23:32.496Z,91.34
2019-03-29T09:24:29.180Z,91.82
2019-03-29T09:25:29.199Z,91.25
2019-03-29T09:26:29.221Z,91.53
2019-03-29T09:27:31.920Z,91.15
2019-03-29T09:28:32.512Z,91.53
2019-03-29T09:29:29.306Z,90.29
2019-03-29T09:31:29.328Z,89.9
2019-03-29T09:32:29.347Z,90.48
2019-03-29T09:33:29.374Z,90.24
2019-03-29T09:34:31.316Z,91.2
2019-03-29T09:35:29.408Z,91.3
2019-03-29T09:36:44.104Z,92.06
2019-03-29T09:37:29.441Z,93.3
2019-03-29T09:38:29.490Z,92.25
2019-03-29T09:39:29.493Z,92.35
2019-03-29T09:40:29.560Z,93.02
2019-03-29T09:41:29.544Z,93.5
2019-03-29T09:43:29.578Z,92.97
2019-03-29T09:44:29.608Z,94.07
2019-03-29T09:45:29.615Z,94.6
2019-03-29T09:46:29.655Z,95.12
2019-03-29T09:47:35.914Z,95.22
2019-03-29T09:48:29.700Z,94.36
2019-03-29T09:49:29.718Z,94.65
2019-03-29T09:50:29.741Z,94.26
2019-03-29T09:51:29.744Z,94.36
2019-03-29T09:52:44.437Z,93.98
2019-03-29T09:53:29.787Z,94.7
2019-03-29T09:54:29.822Z,95.17
2019-03-29T09:55:29.836Z,94.36
2019-03-29T09:56:40.931Z,94.5
2019-03-29T09:57:40.000Z,94.89
2019-03-29T09:59:29.940Z,94.02
2019-03-29T10:00:29.954Z,93.93
2019-03-29T10:01:30.278Z,94.31
2019-03-29T10:02:29.981Z,94.6
2019-03-29T10:03:30.025Z,95.17
2019-03-29T10:04:30.102Z,94.41
2019-03-29T10:05:33.706Z,93.45
2019-03-29T10:06:30.086Z,92.93
2019-03-29T10:07:30.091Z,93.6
2019-03-29T10:08:44.777Z,93.88
2019-03-29T10:09:30.150Z,94.07
2019-03-29T10:10:30.164Z,94.36
2019-03-29T10:11:30.192Z,94.93
2019-03-29T10:12:44.936Z,94.31
2019-03-29T10:13:30.305Z,93.12
2019-03-29T10:14:33.238Z,92.93
2019-03-29T10:15:30.280Z,93.4
2019-03-29T10:16:30.283Z,93.5
2019-03-29T10:17:30.323Z,93.98
2019-03-29T10:18:30.326Z,93.4
2019-03-29T10:19:30.347Z,92.4
2019-03-29T10:20:30.378Z,92.78
2019-03-29T10:21:33.742Z,92.21
2019-03-29T10:22:30.429Z,91.06
2019-03-29T10:23:45.093Z,91.83
2019-03-29T10:24:30.470Z,92.21
2019-03-29T10:25:30.473Z,92.11
2019-03-29T10:26:30.513Z,91.73
2019-03-29T10:27:30.514Z,91.35
2019-03-29T10:28:30.556Z,91.35
2019-03-29T10:29:30.580Z,91.83
2019-03-29T10:30:30.583Z,91.53
2019-03-29T10:31:35.082Z,90.72
2019-03-29T10:32:30.640Z,90.91
2019-03-29T10:33:30.643Z,90.15
2019-03-29T10:34:30.678Z,90.72
2019-03-29T10:36:30.714Z,89.86
2019-03-29T10:38:30.754Z,89.09
2019-03-29T10:39:30.798Z,89.19
2019-03-29T10:40:30.792Z,89.19
2019-03-29T10:41:34.099Z,89
2019-03-29T10:43:30.864Z,88.62
2019-03-29T10:44:30.881Z,88.23
2019-03-29T10:45:30.919Z,89
2019-03-29T10:46:30.941Z,88.52
2019-03-29T10:48:30.989Z,88.23
2019-03-29T10:49:30.985Z,87.47
2019-03-29T10:50:31.014Z,88.13
2019-03-29T10:53:31.499Z,88.28
2019-03-29T10:55:45.779Z,86.22
2019-03-29T10:56:36.887Z,87.32
2019-03-29T10:57:31.159Z,88.28
2019-03-29T10:58:31.182Z,85.79
2019-03-29T10:59:31.201Z,85.69
2019-03-29T11:00:31.240Z,87.13
2019-03-29T11:01:31.246Z,85.5
2019-03-29T11:02:31.283Z,84.45
2019-03-29T11:03:31.435Z,85.12
2019-03-29T11:04:34.251Z,84.92
2019-03-29T11:05:31.332Z,84.35
2019-03-29T11:06:31.387Z,83.78
2019-03-29T11:08:31.452Z,84.16
2019-03-29T11:09:31.417Z,83.97
2019-03-29T11:10:31.468Z,84.02
2019-03-29T11:11:46.129Z,83.01
2019-03-29T11:12:31.487Z,83.01
2019-03-29T11:13:31.527Z,82.43
2019-03-29T11:14:31.526Z,81.48
2019-03-29T11:15:31.563Z,81.48
2019-03-29T11:16:31.621Z,81.29
2019-03-29T11:17:31.607Z,81.34
2019-03-29T11:18:31.636Z,81.1
2019-03-29T11:19:31.638Z,81.86
2019-03-29T11:20:31.670Z,81.77
2019-03-29T11:21:31.702Z,82.15
2019-03-29T11:22:31.718Z,81.67
2019-03-29T11:23:31.729Z,80.62
2019-03-29T11:26:31.789Z,79.81
2019-03-29T11:27:46.477Z,77.99
2019-03-29T11:28:31.831Z,78.38
2019-03-29T11:29:31.866Z,79.43
2019-03-29T11:30:44.592Z,78.66
2019-03-29T11:31:31.901Z,78.38
2019-03-29T11:32:31.917Z,77.99
2019-03-29T11:33:31.951Z,78.28
2019-03-29T11:34:31.967Z,77.99
2019-03-29T11:35:32.002Z,78.19
2019-03-29T11:36:32.005Z,77.8
2019-03-29T11:37:32.043Z,78.57
2019-03-29T11:38:32.049Z,78.95
2019-03-29T11:39:32.086Z,77.26
2019-03-29T11:40:32.091Z,76.65
2019-03-29T11:42:32.135Z,77.61
2019-03-29T11:43:46.822Z,78.28
2019-03-29T11:44:32.825Z,78.28
2019-03-29T11:45:32.214Z,78.38
2019-03-29T11:46:32.219Z,77.9
2019-03-29T11:47:32.260Z,77.9
2019-03-29T11:48:32.264Z,78.66
2019-03-29T11:49:32.287Z,77.33
2019-03-29T11:51:32.348Z,78.38
2019-03-29T11:52:33.893Z,78.03
2019-03-29T11:53:32.369Z,77.08
2019-03-29T11:54:32.407Z,76.69
2019-03-29T11:56:32.442Z,76.82
2019-03-29T11:57:32.475Z,75.39
2019-03-29T11:58:47.145Z,75.77
2019-03-29T11:59:32.505Z,75.58
2019-03-29T12:00:32.543Z,76.25
2019-03-29T12:01:32.546Z,75.87
2019-03-29T12:02:34.187Z,75.77
2019-03-29T12:03:32.610Z,76.39
2019-03-29T12:04:32.622Z,76.44
2019-03-29T12:05:35.930Z,75.23
2019-03-29T12:06:32.661Z,74.91
2019-03-29T12:07:32.695Z,75.2
2019-03-29T12:08:32.707Z,75.39
2019-03-29T12:09:32.738Z,75.48
2019-03-29T12:10:32.746Z,75.39
2019-03-29T12:13:43.556Z,76.31
2019-03-29T12:14:32.832Z,76.98
2019-03-29T12:15:32.867Z,76.64
2019-03-29T12:16:32.893Z,76.92
2019-03-29T12:17:32.921Z,76.89
2019-03-29T12:18:32.919Z,77.17
2019-03-29T12:19:32.953Z,77.94
2019-03-29T12:20:32.977Z,78.13
2019-03-29T12:21:33.002Z,77.36
2019-03-29T12:22:33.010Z,77.65
2019-03-29T12:23:33.048Z,78.32
2019-03-29T12:24:33.055Z,79.75
2019-03-29T12:25:33.087Z,78.22
2019-03-29T12:26:33.118Z,78.32
2019-03-29T12:27:33.134Z,78.76
2019-03-29T12:28:33.139Z,78.99
2019-03-29T12:29:33.176Z,78.51
2019-03-29T12:30:47.852Z,79.18
2019-03-29T12:31:33.222Z,78.51
2019-03-29T12:32:33.235Z,79.81
2019-03-29T12:33:33.264Z,78.8
2019-03-29T12:34:33.285Z,78.51
2019-03-29T12:35:33.330Z,78.13
2019-03-29T12:36:33.311Z,78.7
2019-03-29T12:37:33.335Z,77.75
2019-03-29T12:38:33.375Z,76.89
2019-03-29T12:39:33.377Z,77.94
2019-03-29T12:40:33.414Z,78.61
2019-03-29T12:41:33.432Z,80.04
2019-03-29T12:42:33.461Z,78.55
2019-03-29T12:43:33.464Z,77.78
2019-03-29T12:44:33.488Z,76.44
2019-03-29T12:45:33.524Z,76.92
2019-03-29T12:46:48.194Z,75.96
2019-03-29T12:47:33.572Z,76
2019-03-29T12:48:33.584Z,76.54
2019-03-29T12:49:33.621Z,76.67
2019-03-29T12:50:33.619Z,76.44
2019-03-29T12:51:33.655Z,75.23
2019-03-29T12:52:33.665Z,76.35
2019-03-29T12:53:33.684Z,75.96
2019-03-29T12:54:33.707Z,76.6
2019-03-29T12:55:33.746Z,75.93
2019-03-29T12:56:33.751Z,76.6
2019-03-29T12:57:33.789Z,76.6
2019-03-29T12:59:35.410Z,78.22
2019-03-29T13:00:33.844Z,78.13
2019-03-29T13:01:42.280Z,77.46
2019-03-29T13:02:48.556Z,76.5
2019-03-29T13:03:33.907Z,76.79
2019-03-29T13:04:33.943Z,77.55
2019-03-29T13:05:33.946Z,76.5
2019-03-29T13:06:33.985Z,76.6
2019-03-29T13:07:33.990Z,76.89
2019-03-29T13:08:34.027Z,78.13
2019-03-29T13:09:34.032Z,76.98
2019-03-29T13:10:34.071Z,77.94
2019-03-29T13:11:34.090Z,77.75
2019-03-29T13:12:34.114Z,77.94
2019-03-29T13:13:34.119Z,78.03
2019-03-29T13:14:34.143Z,78.89
2019-03-29T13:15:34.175Z,78.51
2019-03-29T13:16:34.204Z,77.94
2019-03-29T13:17:34.207Z,77.94
2019-03-29T13:18:48.896Z,78.99
2019-03-29T13:19:34.252Z,79.57
2019-03-29T13:20:34.292Z,79.85
2019-03-29T13:21:34.312Z,81.2
2019-03-29T13:22:37.108Z,81.48
2019-03-29T13:23:34.349Z,81.57
2019-03-29T13:24:34.357Z,81.77
2019-03-29T13:25:34.405Z,82.06
2019-03-29T13:26:34.411Z,81.96
2019-03-29T13:27:34.443Z,82.34
2019-03-29T13:28:34.461Z,81.77
2019-03-29T13:29:34.486Z,81.38
2019-03-29T13:30:34.499Z,81.67
2019-03-29T13:31:34.531Z,82.15
2019-03-29T13:32:36.031Z,82.15
2019-03-29T13:33:49.218Z,81.25
2019-03-29T13:34:34.581Z,81.25
2019-03-29T13:35:34.626Z,81.48
2019-03-29T13:36:34.620Z,81.82
2019-03-29T13:37:34.671Z,81.96
2019-03-29T13:38:34.666Z,80.33
2019-03-29T13:39:34.700Z,81.34
2019-03-29T13:40:34.710Z,80.29
2019-03-29T13:41:34.726Z,80.33
2019-03-29T13:42:34.760Z,80.81
2019-03-29T13:43:34.790Z,81.29
2019-03-29T13:44:34.892Z,81.77
2019-03-29T13:45:34.832Z,80.04
2019-03-29T13:46:34.833Z,80.43